Time;durP1;ratioP1;P1;durP2;ratioP2;P2;SDS_P1;SDS_P2;PMS_P1;PMS_P2;Temp;Humidity;BMP_temperature;BMP_pressure;BME280_temperature;BME280_humidity;BME280_pressure;Samples;Min_cycle;Max_cycle;Signal;HPM_P1;HPM_P2
2021/06/04 07:05:44;;;;;;;24.23;17.55;;;21.90;98.20;;;;;;5127678;27;20135;-61
2021/06/04 07:08:11;;;;;;;23.00;15.93;;;22.30;97.70;;;;;;5128206;28;20031;-64
2021/06/04 07:10:37;;;;;;;18.52;13.98;;;22.80;97.20;;;;;;5128771;28;20107;-65
2021/06/04 07:13:07;;;;;;;17.38;13.38;;;23.10;96.70;;;;;;5128154;27;20435;-62
2021/06/04 07:15:33;;;;;;;18.60;12.40;;;23.40;96.30;;;;;;5125790;28;20038;-62
2021/06/04 07:17:59;;;;;;;21.02;12.18;;;23.60;96.00;;;;;;5128153;27;20019;-61
2021/06/04 07:20:28;;;;;;;16.95;11.20;;;23.80;95.60;;;;;;5129207;28;20047;-71
2021/06/04 07:22:56;;;;;;;16.88;11.35;;;24.00;95.40;;;;;;5129545;27;20047;-69
2021/06/04 07:25:26;;;;;;;14.93;9.82;;;24.20;95.20;;;;;;5129185;27;20494;-64
2021/06/04 07:27:52;;;;;;;12.13;9.43;;;24.30;94.90;;;;;;5129472;28;20065;-66
2021/06/04 07:30:25;;;;;;;11.15;8.52;;;24.40;94.80;;;;;;5128911;28;20031;-68
2021/06/04 07:32:52;;;;;;;9.45;7.78;;;24.50;94.70;;;;;;5108882;28;20024;-63
2021/06/04 07:35:22;;;;;;;11.98;8.30;;;24.50;94.70;;;;;;5108430;28;20024;-65
2021/06/04 07:37:48;;;;;;;11.05;8.32;;;24.60;94.60;;;;;;5108764;28;20034;-65
2021/06/04 07:40:20;;;;;;;9.25;7.55;;;24.60;94.50;;;;;;5126623;28;20114;-69
2021/06/04 07:42:47;;;;;;;12.23;7.45;;;24.70;94.40;;;;;;5129198;27;20019;-65
2021/06/04 07:45:13;;;;;;;11.80;7.22;;;24.70;94.30;;;;;;5128695;28;20039;-61
2021/06/04 07:47:38;;;;;;;10.60;6.82;;;24.80;94.20;;;;;;5128537;28;20509;-72
2021/06/04 07:50:07;;;;;;;9.65;6.65;;;25.00;94.00;;;;;;5127335;28;20102;-70
2021/06/04 07:52:33;;;;;;;13.70;7.15;;;25.10;93.90;;;;;;5128908;27;20039;-73
2021/06/04 07:54:59;;;;;;;8.20;6.57;;;25.20;93.70;;;;;;5128937;28;20382;-67
2021/06/04 07:57:26;;;;;;;10.05;6.85;;;25.20;93.70;;;;;;5128632;28;20032;-75
2021/06/04 07:59:52;;;;;;;8.82;6.80;;;25.30;93.60;;;;;;5128326;28;20016;-73
2021/06/04 08:02:18;;;;;;;8.07;6.00;;;25.30;93.60;;;;;;5128925;28;20026;-76
2021/06/04 08:04:44;;;;;;;9.10;6.22;;;25.40;93.60;;;;;;5128665;27;20047;-72
2021/06/04 08:07:10;;;;;;;7.38;6.07;;;25.40;93.40;;;;;;5128408;28;20034;-63
2021/06/04 08:09:37;;;;;;;7.55;6.28;;;25.40;93.40;;;;;;5128401;28;20444;-62
2021/06/04 08:12:04;;;;;;;7.45;6.00;;;25.40;93.50;;;;;;5128513;28;20130;-63
2021/06/04 08:14:31;;;;;;;7.35;5.90;;;25.30;93.50;;;;;;5128598;28;20029;-62
2021/06/04 08:16:58;;;;;;;7.80;5.82;;;25.50;93.40;;;;;;5115651;28;20035;-62
2021/06/04 08:19:26;;;;;;;6.15;5.15;;;25.70;93.20;;;;;;5114411;28;20066;-61
2021/06/04 08:21:54;;;;;;;6.70;5.70;;;25.70;93.10;;;;;;5114721;28;20057;-60
2021/06/04 08:24:23;;;;;;;7.65;5.28;;;25.80;93.10;;;;;;5114547;28;20209;-62
2021/06/04 08:26:50;;;;;;;8.07;5.80;;;25.80;93.00;;;;;;5114635;28;20027;-61
2021/06/04 08:29:16;;;;;;;9.05;5.80;;;25.80;93.10;;;;;;5114246;28;20051;-63
2021/06/04 08:31:42;;;;;;;6.30;5.70;;;25.80;93.10;;;;;;5114774;28;20052;-62
2021/06/04 08:34:09;;;;;;;7.85;5.60;;;25.70;93.10;;;;;;5114462;28;20065;-64
2021/06/04 08:36:37;;;;;;;7.88;5.90;;;25.80;93.10;;;;;;5114070;28;20129;-62
2021/06/04 08:39:16;;;;;;;6.93;5.72;;;25.80;93.20;;;;;;5113888;28;20414;-65
2021/06/04 08:42:13;;;;;;;6.63;5.60;;;25.80;93.20;;;;;;5114271;28;20058;-72
2021/06/04 08:45:12;;;;;;;7.53;5.40;;;25.80;93.20;;;;;;5094154;28;20472;-65
2021/06/04 08:47:41;;;;;;;7.32;5.40;;;25.80;93.20;;;;;;5106831;28;20085;-63
2021/06/04 08:50:09;;;;;;;6.78;5.53;;;25.90;93.10;;;;;;5112107;28;20091;-64
2021/06/04 08:53:01;;;;;;;6.50;5.28;;;25.90;93.10;;;;;;5111225;28;20028;-68
2021/06/04 08:55:33;;;;;;;5.82;5.18;;;25.90;93.50;;;;;;5113555;28;20096;-66
2021/06/04 08:58:12;;;;;;;8.32;5.57;;;25.90;93.20;;;;;;5114132;28;20119;-66
2021/06/04 09:00:43;;;;;;;6.95;5.65;;;25.80;93.20;;;;;;5114090;28;20024;-63
2021/06/04 09:03:29;;;;;;;7.68;4.82;;;25.80;93.20;;;;;;5114061;28;20077;-63
2021/06/04 09:06:25;;;;;;;7.65;5.13;;;25.90;93.20;;;;;;5113611;28;20501;-64
2021/06/04 09:08:52;;;;;;;5.70;4.93;;;25.90;93.20;;;;;;5113273;28;20053;-64
2021/06/04 09:11:32;;;;;;;5.93;5.18;;;26.00;93.10;;;;;;5113613;28;20038;-64
2021/06/04 09:13:58;;;;;;;5.57;4.60;;;26.10;93.00;;;;;;5113351;28;20031;-64
2021/06/04 09:16:29;;;;;;;6.80;5.10;;;26.00;93.10;;;;;;5113093;28;20028;-64
2021/06/04 09:19:06;;;;;;;5.88;5.28;;;26.00;93.50;;;;;;5113028;28;20027;-63
2021/06/04 09:21:35;;;;;;;5.82;4.95;;;25.90;93.20;;;;;;5113304;28;20038;-64
2021/06/04 09:24:04;;;;;;;6.65;4.93;;;25.90;93.20;;;;;;5113201;28;20032;-63
2021/06/04 09:26:30;;;;;;;5.78;5.13;;;26.00;93.30;;;;;;5113398;28;20052;-65
2021/06/04 09:29:02;;;;;;;6.38;5.47;;;25.90;93.20;;;;;;5112060;28;20032;-62
2021/06/04 09:31:48;;;;;;;7.15;4.50;;;26.10;93.20;;;;;;5112573;28;20148;-63
2021/06/04 09:34:24;;;;;;;6.38;4.97;;;26.00;93.20;;;;;;5112486;28;20027;-63
2021/06/04 09:36:58;;;;;;;6.28;4.60;;;26.00;93.20;;;;;;5113182;28;20084;-62
2021/06/04 09:39:29;;;;;;;6.65;5.25;;;26.10;93.20;;;;;;5111239;28;20032;-63
2021/06/04 09:42:17;;;;;;;7.95;4.93;;;26.10;93.20;;;;;;5112130;28;20440;-62
2021/06/04 09:45:13;;;;;;;5.28;4.72;;;26.20;93.10;;;;;;5111863;28;20379;-63
2021/06/04 09:47:42;;;;;;;5.18;4.30;;;26.20;93.10;;;;;;5109553;28;20102;-62
2021/06/04 09:50:33;;;;;;;6.45;5.00;;;26.20;93.10;;;;;;5112760;28;20429;-62
2021/06/04 09:53:13;;;;;;;6.47;4.93;;;26.10;93.10;;;;;;5112804;28;20016;-61
2021/06/04 09:55:48;;;;;;;7.93;5.20;;;26.20;93.10;;;;;;5112927;28;20035;-61
2021/06/04 09:58:14;;;;;;;6.35;4.80;;;26.10;93.20;;;;;;5112831;28;20546;-63
2021/06/04 10:00:45;;;;;;;6.50;5.50;;;26.10;93.20;;;;;;5112973;28;20111;-62
2021/06/04 10:03:17;;;;;;;6.68;5.10;;;26.10;93.20;;;;;;5112696;28;20027;-66
2021/06/04 10:05:44;;;;;;;7.57;5.15;;;26.00;93.30;;;;;;5112981;28;20031;-64
2021/06/04 10:08:27;;;;;;;5.80;5.20;;;26.00;93.30;;;;;;5112247;28;20035;-61
2021/06/04 10:11:07;;;;;;;5.57;5.07;;;25.90;93.30;;;;;;5112752;28;20072;-68
2021/06/04 10:13:48;;;;;;;6.88;5.35;;;25.90;93.40;;;;;;5112650;28;20036;-61
2021/06/04 10:19:37;;;;;;;5.57;5.05;;;25.80;93.50;;;;;;5094782;28;20027;-65
2021/06/04 10:22:24;;;;;;;8.43;5.00;;;25.80;93.50;;;;;;5093956;28;20027;-65
2021/06/04 10:24:52;;;;;;;6.20;5.50;;;25.80;93.50;;;;;;5114185;28;20368;-72
2021/06/04 10:27:32;;;;;;;5.55;5.00;;;25.80;93.60;;;;;;5112098;28;20020;-65
2021/06/04 10:30:11;;;;;;;6.85;5.47;;;25.80;93.60;;;;;;5112038;28;20055;-62
2021/06/04 10:32:57;;;;;;;6.85;5.25;;;25.80;93.60;;;;;;5111988;28;20425;-63
2021/06/04 10:35:35;;;;;;;6.57;5.60;;;25.90;93.70;;;;;;5110555;28;20043;-62
2021/06/04 10:38:05;;;;;;;6.88;5.50;;;25.90;93.60;;;;;;5111850;28;20027;-64
2021/06/04 10:40:58;;;;;;;8.20;5.70;;;25.90;93.60;;;;;;5112280;28;20027;-61
2021/06/04 10:43:46;;;;;;;6.22;5.13;;;25.90;93.70;;;;;;5111941;28;20053;-61
2021/06/04 10:46:43;;;;;;;6.53;5.40;;;25.90;93.70;;;;;;5111730;28;20024;-62
2021/06/04 10:49:33;;;;;;;6.32;5.20;;;25.80;93.70;;;;;;5056110;28;20040;-62
2021/06/04 10:52:17;;;;;;;6.82;5.38;;;25.80;93.70;;;;;;5112073;28;20088;-61
2021/06/04 10:55:16;;;;;;;7.22;5.90;;;25.80;93.70;;;;;;5112230;28;20031;-65
2021/06/04 10:58:04;;;;;;;6.32;5.25;;;25.80;93.70;;;;;;5112075;28;20035;-62
2021/06/04 11:00:36;;;;;;;6.07;5.47;;;25.90;93.70;;;;;;5111617;28;20023;-62
2021/06/04 11:03:18;;;;;;;6.10;5.30;;;25.90;93.60;;;;;;5111853;28;20028;-61
2021/06/04 11:06:16;;;;;;;6.40;5.28;;;26.00;93.60;;;;;;5112006;28;20592;-61
2021/06/04 11:08:42;;;;;;;7.22;5.43;;;26.00;93.50;;;;;;5046335;28;20047;-63
2021/06/04 11:11:38;;;;;;;7.78;5.68;;;26.10;93.50;;;;;;5089864;28;20020;-61
2021/06/04 11:14:18;;;;;;;7.40;5.57;;;26.10;93.50;;;;;;5091230;28;20032;-62
2021/06/04 11:17:22;;;;;;;6.22;5.55;;;26.00;93.50;;;;;;5091336;28;20514;-61
2021/06/04 11:19:49;;;;;;;6.13;5.50;;;26.00;93.50;;;;;;5091557;28;20036;-61
2021/06/04 11:22:31;;;;;;;5.82;5.22;;;26.10;93.50;;;;;;5091457;28;20036;-62
2021/06/04 11:25:27;;;;;;;6.40;5.72;;;26.10;93.50;;;;;;5109954;28;20031;-61
2021/06/04 11:28:06;;;;;;;5.68;5.13;;;26.10;93.60;;;;;;5103268;28;20070;-62
2021/06/04 11:30:33;;;;;;;6.97;5.35;;;26.10;93.60;;;;;;5111529;28;20035;-65
2021/06/04 11:33:16;;;;;;;6.00;5.38;;;26.10;93.60;;;;;;5111497;28;20117;-61
2021/06/04 11:35:50;;;;;;;6.77;5.57;;;26.00;93.60;;;;;;5111692;28;20141;-63
2021/06/04 11:38:38;;;;;;;6.75;5.60;;;26.10;93.70;;;;;;5111543;28;20024;-62
2021/06/04 11:41:16;;;;;;;5.95;5.35;;;26.10;93.60;;;;;;5109976;28;20024;-63
2021/06/04 11:43:46;;;;;;;6.70;5.47;;;26.20;93.60;;;;;;5111527;28;20527;-64
2021/06/04 11:46:14;;;;;;;6.38;5.15;;;26.20;93.50;;;;;;5111195;28;20023;-64
2021/06/04 11:48:53;;;;;;;8.65;5.38;;;26.30;93.40;;;;;;5111461;28;20382;-64
2021/06/04 11:51:19;;;;;;;7.38;5.32;;;26.30;93.40;;;;;;5112823;28;20019;-61
2021/06/04 11:53:46;;;;;;;6.47;5.70;;;26.30;93.40;;;;;;5114219;28;20031;-62
2021/06/04 11:56:38;;;;;;;5.88;4.88;;;26.30;93.40;;;;;;5114068;28;20032;-66
2021/06/04 11:59:05;;;;;;;7.05;5.10;;;26.30;93.40;;;;;;5094049;28;20030;-64
2021/06/04 12:02:04;;;;;;;7.15;5.32;;;26.40;93.50;;;;;;5109628;28;20571;-62
2021/06/04 12:04:30;;;;;;;7.40;5.38;;;26.50;93.50;;;;;;5088942;28;20407;-62
2021/06/04 12:07:03;;;;;;;6.78;5.80;;;26.50;93.30;;;;;;5115071;28;20020;-63
2021/06/04 12:09:31;;;;;;;5.50;4.97;;;26.50;93.70;;;;;;5114973;28;20039;-62
2021/06/04 12:12:16;;;;;;;6.28;5.50;;;26.70;93.30;;;;;;5114939;28;20020;-67
2021/06/04 12:15:02;;;;;;;5.53;5.03;;;26.70;93.20;;;;;;5114683;28;20114;-61
2021/06/04 12:17:34;;;;;;;7.53;5.45;;;26.70;93.20;;;;;;5063079;27;20035;-62
2021/06/04 12:20:37;;;;;;;6.57;5.40;;;26.80;93.30;;;;;;5114849;28;20058;-63
2021/06/04 12:23:08;;;;;;;5.77;5.17;;;26.80;93.30;;;;;;5114467;28;20023;-64
2021/06/04 12:25:49;;;;;;;6.30;5.70;;;26.80;93.30;;;;;;5114665;28;20119;-71
2021/06/04 12:28:17;;;;;;;5.93;5.32;;;26.80;93.30;;;;;;5114484;28;20062;-74
2021/06/04 12:30:58;;;;;;;6.03;5.43;;;26.90;93.20;;;;;;5114648;28;20026;-72
2021/06/04 12:33:52;;;;;;;6.38;5.72;;;26.90;93.20;;;;;;5114189;28;20019;-73
2021/06/04 12:36:30;;;;;;;5.53;4.95;;;26.90;93.30;;;;;;5111157;28;20050;-75
2021/06/04 12:39:20;;;;;;;7.15;5.40;;;26.90;93.40;;;;;;5113963;28;20488;-74
2021/06/04 12:41:50;;;;;;;5.85;5.15;;;26.90;93.40;;;;;;5114139;28;20098;-77
2021/06/04 12:44:16;;;;;;;6.72;5.03;;;27.00;93.70;;;;;;5114147;28;20103;-71
2021/06/04 12:46:46;;;;;;;6.70;5.70;;;27.00;93.40;;;;;;5114071;28;20405;-74
2021/06/04 12:49:14;;;;;;;5.88;5.20;;;27.00;93.40;;;;;;5113591;28;20095;-61
2021/06/04 12:51:41;;;;;;;6.63;5.13;;;27.10;93.40;;;;;;5113470;28;20484;-61
2021/06/04 12:54:10;;;;;;;5.55;5.03;;;27.00;93.40;;;;;;5113204;28;20046;-61
2021/06/04 12:56:46;;;;;;;7.05;5.45;;;27.00;93.40;;;;;;5110466;28;20032;-61
2021/06/04 12:59:20;;;;;;;6.15;5.50;;;27.00;93.40;;;;;;5114067;28;20047;-61
2021/06/04 13:01:55;;;;;;;6.07;5.13;;;27.00;93.40;;;;;;5113726;28;20024;-61
2021/06/04 13:04:32;;;;;;;5.70;5.10;;;27.00;93.40;;;;;;5113857;28;20027;-61
2021/06/04 13:06:59;;;;;;;7.53;5.68;;;27.00;93.40;;;;;;5113846;27;20119;-60
2021/06/04 13:09:41;;;;;;;6.07;5.55;;;27.10;93.40;;;;;;5113755;28;20467;-60
2021/06/04 13:12:21;;;;;;;6.05;5.45;;;27.10;93.50;;;;;;5113621;28;20479;-61
2021/06/04 13:14:49;;;;;;;5.78;5.18;;;27.10;93.50;;;;;;5113793;28;20050;-62
2021/06/04 13:17:33;;;;;;;5.85;5.25;;;27.10;93.50;;;;;;5113407;28;20106;-61
2021/06/04 13:20:23;;;;;;;5.97;5.03;;;27.10;93.50;;;;;;5113646;28;20491;-62
2021/06/04 13:23:06;;;;;;;6.65;5.75;;;27.20;93.40;;;;;;5113705;28;20027;-61
2021/06/04 13:25:32;;;;;;;5.88;5.38;;;27.20;93.40;;;;;;5113548;28;20027;-62
2021/06/04 13:28:00;;;;;;;6.13;5.60;;;27.20;93.50;;;;;;5113188;28;20080;-61
2021/06/04 13:30:29;;;;;;;7.35;5.93;;;27.20;93.40;;;;;;5111801;28;20027;-61
2021/06/04 13:33:00;;;;;;;6.57;5.45;;;27.20;93.40;;;;;;5113362;28;20027;-62
2021/06/04 13:35:49;;;;;;;6.38;5.75;;;27.20;93.40;;;;;;5113079;28;20383;-61
2021/06/04 13:38:31;;;;;;;5.90;5.30;;;27.20;93.70;;;;;;5113011;28;20039;-62
2021/06/04 13:41:08;;;;;;;6.15;5.55;;;27.20;93.50;;;;;;5113303;28;20027;-61
2021/06/04 13:43:45;;;;;;;5.97;5.18;;;27.30;93.50;;;;;;5113391;28;20036;-61
2021/06/04 13:46:14;;;;;;;6.10;5.40;;;27.30;93.40;;;;;;5112713;28;20020;-61
2021/06/04 13:48:40;;;;;;;5.93;5.32;;;27.30;93.40;;;;;;5113060;28;20028;-67
2021/06/04 13:51:11;;;;;;;5.47;4.88;;;27.30;93.30;;;;;;5112776;28;20085;-64
2021/06/04 13:53:40;;;;;;;7.65;5.20;;;27.40;93.30;;;;;;5112870;28;20019;-62
2021/06/04 13:56:24;;;;;;;5.95;5.35;;;27.30;93.40;;;;;;5112470;28;20054;-61
2021/06/04 13:59:16;;;;;;;5.88;4.80;;;27.30;93.40;;;;;;5112643;28;20472;-61
2021/06/04 14:01:47;;;;;;;5.30;4.75;;;27.30;93.40;;;;;;5112892;28;20028;-64
2021/06/04 14:04:31;;;;;;;5.00;4.50;;;27.30;93.50;;;;;;5112403;28;20069;-62
2021/06/04 14:06:56;;;;;;;4.90;4.40;;;27.30;93.50;;;;;;5112923;28;20095;-62
2021/06/04 14:09:37;;;;;;;5.15;4.65;;;27.20;93.50;;;;;;5112677;28;20627;-63
2021/06/04 14:12:17;;;;;;;5.30;4.80;;;27.10;93.60;;;;;;5112532;28;20085;-61
2021/06/04 14:14:46;;;;;;;7.60;4.50;;;27.10;93.80;;;;;;5111998;28;20036;-63
2021/06/04 14:17:37;;;;;;;4.65;4.25;;;27.10;93.80;;;;;;5112202;28;20019;-62
2021/06/04 14:20:12;;;;;;;5.05;4.30;;;27.20;93.70;;;;;;5112176;28;20023;-62
2021/06/04 14:22:40;;;;;;;4.80;4.38;;;27.10;93.70;;;;;;5112705;28;20098;-65
2021/06/04 14:25:12;;;;;;;5.72;4.68;;;27.10;93.80;;;;;;5112217;28;20034;-65
2021/06/04 14:27:40;;;;;;;5.88;4.57;;;27.10;93.80;;;;;;5112038;28;20020;-65
2021/06/04 14:30:38;;;;;;;4.95;4.53;;;27.20;93.80;;;;;;5112175;28;20032;-67
2021/06/04 14:33:10;;;;;;;4.40;3.97;;;27.10;93.80;;;;;;5111852;28;20016;-68
2021/06/04 14:35:54;;;;;;;4.93;4.22;;;27.00;93.90;;;;;;5112077;28;20035;-65
2021/06/04 14:38:25;;;;;;;4.60;4.20;;;27.10;94.00;;;;;;5111941;28;20026;-64
2021/06/04 14:40:50;;;;;;;4.28;3.97;;;27.00;94.00;;;;;;5112022;28;20023;-64
2021/06/04 14:43:16;;;;;;;4.25;3.85;;;27.10;94.20;;;;;;5111900;28;20035;-68
2021/06/04 14:45:42;;;;;;;6.07;4.40;;;27.10;94.00;;;;;;5111975;28;20024;-67
2021/06/04 14:48:14;;;;;;;4.78;4.13;;;27.10;94.00;;;;;;5110679;28;20033;-65
2021/06/04 14:50:40;;;;;;;4.57;4.10;;;27.10;94.10;;;;;;5112108;28;20468;-63
2021/06/04 14:53:06;;;;;;;4.32;3.92;;;27.10;94.00;;;;;;5111578;28;20042;-67
2021/06/04 14:55:31;;;;;;;4.25;3.85;;;27.00;94.20;;;;;;5111731;28;20036;-72
2021/06/04 14:57:58;;;;;;;4.03;3.63;;;27.10;94.20;;;;;;5112236;28;20378;-66
2021/06/04 15:00:25;;;;;;;4.13;3.72;;;27.00;94.20;;;;;;5111563;28;20080;-70
2021/06/04 15:02:51;;;;;;;4.40;3.65;;;27.00;94.20;;;;;;5111968;28;20024;-71
2021/06/04 15:05:22;;;;;;;4.38;3.83;;;27.00;94.20;;;;;;5111458;28;20031;-62
2021/06/04 15:07:48;;;;;;;4.38;3.67;;;26.90;94.20;;;;;;5111794;28;20490;-62
2021/06/04 15:10:14;;;;;;;3.78;3.47;;;26.80;94.40;;;;;;5111451;28;20509;-63
2021/06/04 15:12:40;;;;;;;5.07;4.18;;;26.80;94.50;;;;;;5111878;28;20019;-63
2021/06/04 15:15:12;;;;;;;4.47;3.75;;;26.80;94.60;;;;;;5111581;28;20195;-62
2021/06/04 15:17:39;;;;;;;5.60;3.80;;;26.80;94.60;;;;;;5111756;28;20023;-65
2021/06/04 15:20:08;;;;;;;4.28;3.88;;;26.80;94.60;;;;;;5111499;28;20117;-63
2021/06/04 15:22:33;;;;;;;4.05;3.65;;;26.70;94.60;;;;;;5110807;28;20032;-64
2021/06/04 15:25:00;;;;;;;4.32;3.92;;;26.60;94.60;;;;;;5122821;28;20023;-63
2021/06/04 15:27:27;;;;;;;4.00;3.60;;;26.70;94.70;;;;;;5123406;27;20019;-63
2021/06/04 15:29:54;;;;;;;3.85;3.45;;;26.60;94.70;;;;;;5126501;27;20035;-63
2021/06/04 15:32:21;;;;;;;4.15;3.75;;;26.60;94.80;;;;;;5120797;27;20466;-68
2021/06/04 15:34:47;;;;;;;5.35;3.75;;;26.60;94.80;;;;;;5119002;27;20043;-63
2021/06/04 15:37:12;;;;;;;4.22;3.83;;;26.60;94.80;;;;;;5114896;28;20018;-63
2021/06/04 15:39:38;;;;;;;5.70;4.28;;;26.60;94.80;;;;;;5114503;28;20096;-63
2021/06/04 15:42:05;;;;;;;4.15;3.70;;;26.60;94.80;;;;;;5115327;28;20064;-63
2021/06/04 15:44:32;;;;;;;3.85;3.25;;;26.60;94.80;;;;;;5115847;28;20103;-62
2021/06/04 15:46:58;;;;;;;3.60;3.30;;;26.60;94.90;;;;;;5115375;28;20099;-62
2021/06/04 15:49:24;;;;;;;4.63;3.65;;;26.60;94.90;;;;;;5114583;28;20110;-63
2021/06/04 15:51:50;;;;;;;6.07;3.58;;;26.50;94.80;;;;;;5115175;28;20103;-63
2021/06/04 15:54:17;;;;;;;4.28;3.60;;;26.50;94.90;;;;;;5114766;28;20046;-63
2021/06/04 15:56:43;;;;;;;4.35;3.67;;;26.50;95.00;;;;;;5115351;28;20024;-62
2021/06/04 15:59:09;;;;;;;3.70;3.40;;;26.50;95.10;;;;;;5115034;28;20020;-64
2021/06/04 16:01:41;;;;;;;4.03;3.58;;;26.50;95.20;;;;;;5115116;27;20030;-63
2021/06/04 16:04:10;;;;;;;3.33;3.03;;;26.40;95.20;;;;;;5114853;28;20036;-63
2021/06/04 16:06:36;;;;;;;3.67;3.13;;;26.40;95.20;;;;;;5115155;28;20077;-63
2021/06/04 16:09:07;;;;;;;5.43;2.83;;;26.40;95.20;;;;;;5115255;28;20401;-63
2021/06/04 16:11:33;;;;;;;3.72;3.22;;;26.40;95.20;;;;;;5115235;28;20043;-62
2021/06/04 16:13:59;;;;;;;4.43;2.88;;;26.30;95.30;;;;;;5115158;28;20106;-64
2021/06/04 16:16:24;;;;;;;3.72;3.15;;;26.30;95.30;;;;;;5114667;28;20106;-64
2021/06/04 16:18:50;;;;;;;3.88;3.55;;;26.20;95.30;;;;;;5114329;28;20032;-62
2021/06/04 16:21:17;;;;;;;4.00;3.40;;;26.20;95.30;;;;;;5114364;28;20213;-62
2021/06/04 16:23:43;;;;;;;3.67;3.10;;;26.20;95.30;;;;;;5114826;28;20016;-62
2021/06/04 16:26:12;;;;;;;3.58;3.28;;;26.20;95.30;;;;;;5114606;28;20080;-62
2021/06/04 16:28:38;;;;;;;3.97;3.40;;;26.20;95.30;;;;;;5114621;28;20098;-64
2021/06/04 16:31:05;;;;;;;3.78;3.00;;;26.20;95.30;;;;;;5114019;28;20436;-63
2021/06/04 16:33:38;;;;;;;3.17;2.85;;;26.20;95.30;;;;;;5114574;28;20553;-64
2021/06/04 16:36:09;;;;;;;4.90;3.70;;;26.20;95.30;;;;;;5113595;28;20491;-64
2021/06/04 16:38:36;;;;;;;3.65;3.17;;;26.20;95.30;;;;;;5114607;28;20035;-62
2021/06/04 16:41:03;;;;;;;3.88;3.15;;;26.20;95.40;;;;;;5114383;28;20029;-63
2021/06/04 16:43:29;;;;;;;5.18;3.28;;;26.20;95.40;;;;;;5113214;28;20505;-62
2021/06/04 16:45:56;;;;;;;3.30;3.00;;;26.10;95.40;;;;;;5113562;28;20020;-62
2021/06/04 16:48:22;;;;;;;3.40;3.10;;;26.10;95.40;;;;;;5113932;28;20028;-65
2021/06/04 16:50:51;;;;;;;4.38;3.25;;;26.10;95.40;;;;;;5114361;28;20480;-63
2021/06/04 16:53:18;;;;;;;3.40;3.08;;;26.10;95.30;;;;;;5114207;28;20106;-63
2021/06/04 16:55:43;;;;;;;4.75;2.95;;;26.10;95.40;;;;;;5112821;28;20035;-64
2021/06/04 16:58:15;;;;;;;3.97;3.20;;;26.10;95.50;;;;;;5113905;28;20027;-63
2021/06/04 17:00:41;;;;;;;3.45;2.90;;;26.10;95.80;;;;;;5114255;28;20027;-62
2021/06/04 17:03:07;;;;;;;3.20;2.90;;;26.00;95.40;;;;;;5113787;28;20016;-62
2021/06/04 17:05:33;;;;;;;3.75;3.30;;;26.00;95.50;;;;;;5114016;28;20043;-62
2021/06/04 17:07:59;;;;;;;3.75;3.00;;;26.00;95.40;;;;;;5114060;28;20035;-65
2021/06/04 17:10:25;;;;;;;3.78;3.33;;;26.10;95.30;;;;;;5113447;28;20031;-64
2021/06/04 17:12:52;;;;;;;3.60;3.30;;;26.10;95.40;;;;;;5113894;28;20051;-65
2021/06/04 17:15:28;;;;;;;3.60;3.20;;;26.10;95.40;;;;;;5112985;28;20039;-64
2021/06/04 17:17:54;;;;;;;3.78;3.17;;;26.00;95.40;;;;;;5113673;27;20059;-65
2021/06/04 17:20:20;;;;;;;3.25;2.92;;;26.00;95.40;;;;;;5113554;28;20100;-67
2021/06/04 17:22:46;;;;;;;4.03;3.30;;;26.00;95.50;;;;;;5113752;28;20155;-66
2021/06/04 17:25:15;;;;;;;3.22;2.90;;;26.00;95.40;;;;;;5112594;28;20032;-65
2021/06/04 17:27:42;;;;;;;3.35;3.05;;;26.00;95.40;;;;;;5113652;28;20058;-64
2021/06/04 17:30:09;;;;;;;3.42;2.90;;;26.00;95.40;;;;;;5113219;28;20056;-64
2021/06/04 17:32:34;;;;;;;3.58;2.97;;;26.00;95.40;;;;;;5113407;28;20024;-63
2021/06/04 17:35:00;;;;;;;3.42;3.13;;;26.00;95.40;;;;;;5113592;28;20042;-64
2021/06/04 17:37:26;;;;;;;3.42;2.90;;;26.00;95.30;;;;;;5112945;28;20031;-64
2021/06/04 17:39:51;;;;;;;4.13;3.17;;;26.00;95.40;;;;;;5113365;28;20024;-64
2021/06/04 17:42:17;;;;;;;4.03;3.03;;;26.00;95.30;;;;;;5113033;28;20028;-64
2021/06/04 17:44:43;;;;;;;3.20;2.70;;;26.00;95.40;;;;;;5113221;28;20027;-64
2021/06/04 17:47:09;;;;;;;4.10;3.13;;;25.90;95.30;;;;;;5113021;28;20467;-63
2021/06/04 17:49:35;;;;;;;3.40;2.97;;;26.00;95.40;;;;;;5109599;28;20031;-63
2021/06/04 17:52:01;;;;;;;3.45;2.90;;;26.00;95.30;;;;;;5110029;28;20497;-65
2021/06/04 17:54:26;;;;;;;3.42;3.13;;;26.00;95.30;;;;;;5108635;28;20099;-64
2021/06/04 17:56:52;;;;;;;3.58;3.10;;;26.00;95.20;;;;;;5111401;28;20087;-63
2021/06/04 17:59:18;;;;;;;3.65;2.97;;;26.00;95.20;;;;;;5111784;28;20019;-64
2021/06/04 18:01:44;;;;;;;3.28;2.88;;;26.10;95.20;;;;;;5111885;28;20036;-63
2021/06/04 18:04:10;;;;;;;4.07;3.35;;;26.00;95.10;;;;;;5112388;28;20510;-65
2021/06/04 18:06:36;;;;;;;3.50;3.20;;;26.00;95.10;;;;;;5112498;28;20110;-65
2021/06/04 18:09:02;;;;;;;4.20;3.80;;;26.10;95.10;;;;;;5112558;28;20019;-62
2021/06/04 18:11:29;;;;;;;9.05;4.00;;;26.00;95.30;;;;;;5112485;28;20463;-67
2021/06/04 18:13:55;;;;;;;3.30;3.00;;;26.00;96.00;;;;;;5112581;28;20427;-68
2021/06/04 18:16:21;;;;;;;4.65;3.28;;;26.00;95.50;;;;;;5111823;28;20016;-68
2021/06/04 18:18:47;;;;;;;4.03;3.35;;;26.00;95.50;;;;;;5112014;28;20035;-67
2021/06/04 18:21:14;;;;;;;4.35;3.65;;;26.00;95.40;;;;;;5111780;28;20080;-67
2021/06/04 18:23:44;;;;;;;3.35;3.05;;;26.00;95.50;;;;;;5112206;28;20509;-68
2021/06/04 18:26:10;;;;;;;3.20;2.90;;;26.00;95.50;;;;;;5111740;28;20383;-70
2021/06/04 18:28:36;;;;;;;3.10;2.80;;;26.00;95.40;;;;;;5110475;28;20051;-69
2021/06/04 18:31:05;;;;;;;3.42;3.08;;;25.90;95.40;;;;;;5110765;28;20498;-68
2021/06/04 18:33:31;;;;;;;4.07;3.28;;;25.90;95.40;;;;;;5110798;28;20020;-67
2021/06/04 18:35:57;;;;;;;3.30;3.00;;;25.90;95.40;;;;;;5110269;28;20403;-67
2021/06/04 18:38:23;;;;;;;3.70;3.30;;;25.90;95.70;;;;;;5110430;28;20019;-66
2021/06/04 18:40:51;;;;;;;3.80;3.33;;;25.90;95.30;;;;;;5110812;28;20067;-70
2021/06/04 18:43:21;;;;;;;4.50;3.30;;;25.90;95.30;;;;;;5111565;28;20026;-67
2021/06/04 18:45:47;;;;;;;3.85;3.25;;;25.70;95.30;;;;;;5112183;28;20031;-66
2021/06/04 18:48:12;;;;;;;4.07;3.25;;;25.70;95.50;;;;;;5111878;28;20022;-66
2021/06/04 18:50:39;;;;;;;3.90;3.50;;;25.70;95.40;;;;;;5112094;28;20513;-67
2021/06/04 18:53:10;;;;;;;4.45;3.25;;;25.60;95.50;;;;;;5111047;28;20031;-66
2021/06/04 18:55:36;;;;;;;3.63;3.30;;;25.60;95.40;;;;;;5111069;28;20559;-68
2021/06/04 18:58:04;;;;;;;3.85;3.50;;;25.60;95.40;;;;;;5112289;28;20024;-68
2021/06/04 19:00:39;;;;;;;3.95;3.17;;;25.60;95.50;;;;;;5112161;28;20109;-66
2021/06/04 19:03:11;;;;;;;3.85;3.10;;;25.60;95.60;;;;;;5110580;28;20038;-65
2021/06/04 19:05:37;;;;;;;3.42;3.13;;;25.50;95.60;;;;;;5110604;28;20403;-64
2021/06/04 19:08:04;;;;;;;4.30;3.55;;;25.50;95.60;;;;;;5112454;28;20387;-66
2021/06/04 19:10:32;;;;;;;3.33;3.03;;;25.40;95.70;;;;;;5111261;28;20023;-63
2021/06/04 19:12:58;;;;;;;4.75;3.60;;;25.40;95.70;;;;;;5109543;28;20088;-67
2021/06/04 19:15:25;;;;;;;4.22;3.40;;;25.40;95.70;;;;;;5111434;28;20031;-66
2021/06/04 19:17:51;;;;;;;4.57;3.85;;;25.30;96.10;;;;;;5111711;28;20421;-68
2021/06/04 19:20:18;;;;;;;6.88;5.40;;;25.30;96.00;;;;;;5110194;28;20484;-68
2021/06/04 19:22:44;;;;;;;9.68;7.47;;;25.30;96.50;;;;;;5111434;28;20475;-65
2021/06/04 19:25:13;;;;;;;9.15;8.07;;;25.10;96.90;;;;;;5109823;28;20059;-65
2021/06/04 19:27:38;;;;;;;10.50;8.38;;;25.00;97.00;;;;;;5108754;28;20443;-65
2021/06/04 19:30:07;;;;;;;14.00;10.18;;;24.90;97.20;;;;;;5110569;28;20027;-69
2021/06/04 19:32:32;;;;;;;11.13;9.40;;;24.70;97.40;;;;;;5109636;28;20102;-68
2021/06/04 19:34:58;;;;;;;10.15;9.07;;;24.70;97.40;;;;;;5109711;28;20119;-68
2021/06/04 19:37:24;;;;;;;10.60;8.85;;;24.80;97.40;;;;;;5110007;28;20043;-65
2021/06/04 19:39:50;;;;;;;9.48;8.18;;;24.70;97.30;;;;;;5109672;28;20034;-65
2021/06/04 19:42:15;;;;;;;8.88;7.35;;;24.70;97.30;;;;;;5116550;28;20053;-66
2021/06/04 19:44:41;;;;;;;11.07;7.07;;;24.80;97.30;;;;;;5117510;28;20035;-71
2021/06/04 19:47:07;;;;;;;10.13;6.97;;;24.70;97.50;;;;;;5110052;28;20141;-64
2021/06/04 19:49:33;;;;;;;7.53;6.22;;;24.90;97.00;;;;;;5110344;28;20065;-62
2021/06/04 19:52:02;;;;;;;16.63;6.20;;;25.10;96.80;;;;;;5110336;28;20556;-69
2021/06/04 19:54:28;;;;;;;8.93;5.50;;;25.10;96.50;;;;;;5109585;28;20042;-63
2021/06/04 19:56:54;;;;;;;7.78;5.20;;;25.10;96.30;;;;;;5109934;28;20024;-63
2021/06/04 19:59:21;;;;;;;7.05;4.93;;;25.20;96.30;;;;;;5109585;28;20043;-64
2021/06/04 20:01:48;;;;;;;6.47;5.07;;;25.10;96.20;;;;;;5108735;28;20031;-63
2021/06/04 20:04:16;;;;;;;6.18;4.63;;;25.10;96.10;;;;;;5109371;28;20039;-63
2021/06/04 20:06:42;;;;;;;5.93;4.38;;;25.10;96.40;;;;;;5107843;28;20102;-63
2021/06/04 20:09:09;;;;;;;5.72;4.32;;;25.10;96.00;;;;;;5109522;28;20031;-62
2021/06/04 20:11:36;;;;;;;5.00;4.18;;;25.10;96.10;;;;;;5109578;28;20127;-61
2021/06/04 20:14:05;;;;;;;7.70;4.30;;;25.10;96.10;;;;;;5110859;28;20380;-63
2021/06/04 20:16:32;;;;;;;7.13;4.50;;;25.00;96.20;;;;;;5113545;28;20103;-63